sensor_id;sensor_type;location;lat;lon;timestamp;P1;durP1;ratioP1;P2;durP2;ratioP2
54428;SDS011;40337;52.978;6.310;2023-08-06T00:01:50;12.77;;;11.15;;
54428;SDS011;40337;52.978;6.310;2023-08-06T00:04:16;13.15;;;11.25;;
54428;SDS011;40337;52.978;6.310;2023-08-06T00:06:41;12.77;;;11.55;;
54428;SDS011;40337;52.978;6.310;2023-08-06T00:09:07;12.13;;;10.85;;
54428;SDS011;40337;52.978;6.310;2023-08-06T00:11:33;11.40;;;10.18;;
54428;SDS011;40337;52.978;6.310;2023-08-06T00:13:59;11.52;;;10.40;;
54428;SDS011;40337;52.978;6.310;2023-08-06T00:16:24;11.57;;;10.40;;
54428;SDS011;40337;52.978;6.310;2023-08-06T00:18:50;14.77;;;11.85;;
54428;SDS011;40337;52.978;6.310;2023-08-06T00:21:15;14.55;;;11.30;;
54428;SDS011;40337;52.978;6.310;2023-08-06T00:23:41;13.27;;;11.27;;
54428;SDS011;40337;52.978;6.310;2023-08-06T00:26:07;13.75;;;12.07;;
54428;SDS011;40337;52.978;6.310;2023-08-06T00:28:32;12.85;;;11.43;;
54428;SDS011;40337;52.978;6.310;2023-08-06T00:30:58;13.15;;;11.63;;
54428;SDS011;40337;52.978;6.310;2023-08-06T00:33:23;13.23;;;11.57;;
54428;SDS011;40337;52.978;6.310;2023-08-06T00:35:49;14.57;;;12.77;;
54428;SDS011;40337;52.978;6.310;2023-08-06T00:38:15;13.35;;;11.95;;
54428;SDS011;40337;52.978;6.310;2023-08-06T00:40:40;13.80;;;12.27;;
54428;SDS011;40337;52.978;6.310;2023-08-06T00:43:06;12.98;;;11.68;;
54428;SDS011;40337;52.978;6.310;2023-08-06T00:45:36;13.45;;;12.10;;
54428;SDS011;40337;52.978;6.310;2023-08-06T00:48:02;14.65;;;12.60;;
54428;SDS011;40337;52.978;6.310;2023-08-06T00:50:30;13.77;;;12.38;;
54428;SDS011;40337;52.978;6.310;2023-08-06T00:52:56;13.18;;;11.82;;
54428;SDS011;40337;52.978;6.310;2023-08-06T00:55:21;14.85;;;11.55;;
54428;SDS011;40337;52.978;6.310;2023-08-06T00:57:47;13.20;;;11.75;;
54428;SDS011;40337;52.978;6.310;2023-08-06T01:00:13;13.70;;;12.13;;
54428;SDS011;40337;52.978;6.310;2023-08-06T01:02:39;15.07;;;11.85;;
54428;SDS011;40337;52.978;6.310;2023-08-06T01:05:04;12.68;;;11.38;;
54428;SDS011;40337;52.978;6.310;2023-08-06T01:07:43;13.32;;;12.02;;
54428;SDS011;40337;52.978;6.310;2023-08-06T01:16:04;14.13;;;12.63;;
54428;SDS011;40337;52.978;6.310;2023-08-06T01:18:31;13.45;;;12.05;;
54428;SDS011;40337;52.978;6.310;2023-08-06T01:20:57;14.88;;;13.30;;
54428;SDS011;40337;52.978;6.310;2023-08-06T01:23:22;13.68;;;12.20;;
54428;SDS011;40337;52.978;6.310;2023-08-06T01:25:58;12.35;;;11.15;;
54428;SDS011;40337;52.978;6.310;2023-08-06T01:28:44;14.15;;;11.35;;
54428;SDS011;40337;52.978;6.310;2023-08-06T01:31:15;13.48;;;12.18;;
54428;SDS011;40337;52.978;6.310;2023-08-06T01:33:54;13.20;;;11.90;;
54428;SDS011;40337;52.978;6.310;2023-08-06T01:36:21;13.10;;;11.73;;
54428;SDS011;40337;52.978;6.310;2023-08-06T01:38:47;13.20;;;11.80;;
54428;SDS011;40337;52.978;6.310;2023-08-06T01:41:13;13.32;;;11.63;;
54428;SDS011;40337;52.978;6.310;2023-08-06T01:43:39;12.80;;;11.50;;
54428;SDS011;40337;52.978;6.310;2023-08-06T01:46:04;12.45;;;11.15;;
54428;SDS011;40337;52.978;6.310;2023-08-06T01:48:30;14.52;;;11.73;;
54428;SDS011;40337;52.978;6.310;2023-08-06T01:50:55;12.20;;;11.00;;
54428;SDS011;40337;52.978;6.310;2023-08-06T01:53:21;15.55;;;11.70;;
54428;SDS011;40337;52.978;6.310;2023-08-06T01:55:50;13.60;;;11.60;;
54428;SDS011;40337;52.978;6.310;2023-08-06T01:58:15;14.13;;;12.18;;
54428;SDS011;40337;52.978;6.310;2023-08-06T02:00:41;12.18;;;10.88;;
54428;SDS011;40337;52.978;6.310;2023-08-06T02:03:07;14.55;;;11.70;;
54428;SDS011;40337;52.978;6.310;2023-08-06T02:05:32;13.52;;;10.95;;
54428;SDS011;40337;52.978;6.310;2023-08-06T02:07:58;12.32;;;11.13;;
54428;SDS011;40337;52.978;6.310;2023-08-06T02:10:23;11.90;;;10.70;;
54428;SDS011;40337;52.978;6.310;2023-08-06T02:12:49;11.88;;;10.73;;
54428;SDS011;40337;52.978;6.310;2023-08-06T02:15:14;11.85;;;10.68;;
54428;SDS011;40337;52.978;6.310;2023-08-06T02:17:40;11.48;;;10.20;;
54428;SDS011;40337;52.978;6.310;2023-08-06T02:20:06;11.98;;;10.55;;
54428;SDS011;40337;52.978;6.310;2023-08-06T02:22:32;12.93;;;10.82;;
54428;SDS011;40337;52.978;6.310;2023-08-06T02:24:58;12.10;;;10.90;;
54428;SDS011;40337;52.978;6.310;2023-08-06T02:27:24;11.68;;;9.63;;
54428;SDS011;40337;52.978;6.310;2023-08-06T02:29:49;11.75;;;10.27;;
54428;SDS011;40337;52.978;6.310;2023-08-06T02:32:15;11.05;;;9.80;;
54428;SDS011;40337;52.978;6.310;2023-08-06T02:34:40;12.48;;;9.98;;
54428;SDS011;40337;52.978;6.310;2023-08-06T02:37:06;10.90;;;9.75;;
54428;SDS011;40337;52.978;6.310;2023-08-06T02:39:31;10.95;;;9.85;;
54428;SDS011;40337;52.978;6.310;2023-08-06T02:41:58;11.13;;;9.45;;
54428;SDS011;40337;52.978;6.310;2023-08-06T02:44:26;12.10;;;9.52;;
54428;SDS011;40337;52.978;6.310;2023-08-06T02:46:52;10.73;;;9.60;;
54428;SDS011;40337;52.978;6.310;2023-08-06T02:49:18;10.43;;;9.20;;
54428;SDS011;40337;52.978;6.310;2023-08-06T02:51:46;11.07;;;9.05;;
54428;SDS011;40337;52.978;6.310;2023-08-06T02:54:12;10.20;;;8.57;;
54428;SDS011;40337;52.978;6.310;2023-08-06T02:56:37;11.70;;;9.15;;
54428;SDS011;40337;52.978;6.310;2023-08-06T02:59:03;9.60;;;8.60;;
54428;SDS011;40337;52.978;6.310;2023-08-06T03:01:29;11.60;;;9.23;;
54428;SDS011;40337;52.978;6.310;2023-08-06T03:03:54;10.88;;;9.48;;
54428;SDS011;40337;52.978;6.310;2023-08-06T03:06:20;9.93;;;8.75;;
54428;SDS011;40337;52.978;6.310;2023-08-06T03:08:46;9.65;;;8.65;;
54428;SDS011;40337;52.978;6.310;2023-08-06T03:11:11;10.73;;;9.60;;
54428;SDS011;40337;52.978;6.310;2023-08-06T03:13:37;12.13;;;10.10;;
54428;SDS011;40337;52.978;6.310;2023-08-06T03:16:02;11.63;;;9.73;;
54428;SDS011;40337;52.978;6.310;2023-08-06T03:18:28;12.52;;;9.35;;
54428;SDS011;40337;52.978;6.310;2023-08-06T03:20:53;14.05;;;9.85;;
54428;SDS011;40337;52.978;6.310;2023-08-06T03:23:19;12.05;;;10.10;;
54428;SDS011;40337;52.978;6.310;2023-08-06T03:25:45;12.63;;;9.77;;
54428;SDS011;40337;52.978;6.310;2023-08-06T03:28:11;11.23;;;9.95;;
54428;SDS011;40337;52.978;6.310;2023-08-06T03:30:38;11.52;;;10.30;;
54428;SDS011;40337;52.978;6.310;2023-08-06T03:33:03;12.73;;;10.73;;
54428;SDS011;40337;52.978;6.310;2023-08-06T03:35:29;13.13;;;11.32;;
54428;SDS011;40337;52.978;6.310;2023-08-06T03:37:54;13.20;;;11.80;;
54428;SDS011;40337;52.978;6.310;2023-08-06T03:40:20;14.18;;;11.40;;
54428;SDS011;40337;52.978;6.310;2023-08-06T03:42:46;12.95;;;11.02;;
54428;SDS011;40337;52.978;6.310;2023-08-06T03:45:11;14.88;;;11.57;;
54428;SDS011;40337;52.978;6.310;2023-08-06T03:47:37;13.45;;;11.57;;
54428;SDS011;40337;52.978;6.310;2023-08-06T03:50:02;12.82;;;11.45;;
54428;SDS011;40337;52.978;6.310;2023-08-06T03:52:28;12.95;;;10.70;;
54428;SDS011;40337;52.978;6.310;2023-08-06T03:54:54;14.00;;;11.48;;
54428;SDS011;40337;52.978;6.310;2023-08-06T03:57:19;12.68;;;11.38;;
54428;SDS011;40337;52.978;6.310;2023-08-06T03:59:45;12.32;;;10.82;;
54428;SDS011;40337;52.978;6.310;2023-08-06T04:02:10;13.02;;;11.73;;
54428;SDS011;40337;52.978;6.310;2023-08-06T04:04:36;12.98;;;11.55;;
54428;SDS011;40337;52.978;6.310;2023-08-06T04:07:01;12.70;;;11.40;;
54428;SDS011;40337;52.978;6.310;2023-08-06T04:09:28;13.02;;;11.10;;
54428;SDS011;40337;52.978;6.310;2023-08-06T04:11:53;12.27;;;10.98;;
54428;SDS011;40337;52.978;6.310;2023-08-06T04:14:19;12.93;;;11.52;;
54428;SDS011;40337;52.978;6.310;2023-08-06T04:16:45;12.50;;;11.23;;
54428;SDS011;40337;52.978;6.310;2023-08-06T04:19:10;11.85;;;10.65;;
54428;SDS011;40337;52.978;6.310;2023-08-06T04:21:36;14.98;;;11.43;;
54428;SDS011;40337;52.978;6.310;2023-08-06T04:24:01;14.50;;;11.48;;
54428;SDS011;40337;52.978;6.310;2023-08-06T04:26:27;13.98;;;11.10;;
54428;SDS011;40337;52.978;6.310;2023-08-06T04:28:53;11.98;;;10.77;;
54428;SDS011;40337;52.978;6.310;2023-08-06T04:31:18;11.30;;;10.07;;
54428;SDS011;40337;52.978;6.310;2023-08-06T04:33:44;13.88;;;11.00;;
54428;SDS011;40337;52.978;6.310;2023-08-06T04:36:09;16.83;;;11.55;;
54428;SDS011;40337;52.978;6.310;2023-08-06T04:38:35;12.18;;;10.98;;
54428;SDS011;40337;52.978;6.310;2023-08-06T04:41:01;12.10;;;10.80;;
54428;SDS011;40337;52.978;6.310;2023-08-06T04:43:28;14.63;;;11.45;;
54428;SDS011;40337;52.978;6.310;2023-08-06T04:45:54;15.77;;;11.07;;
54428;SDS011;40337;52.978;6.310;2023-08-06T04:48:21;12.77;;;10.65;;
54428;SDS011;40337;52.978;6.310;2023-08-06T04:50:47;14.00;;;12.13;;
54428;SDS011;40337;52.978;6.310;2023-08-06T04:53:13;16.20;;;11.75;;
54428;SDS011;40337;52.978;6.310;2023-08-06T04:55:39;12.95;;;10.60;;
54428;SDS011;40337;52.978;6.310;2023-08-06T04:58:06;12.95;;;11.57;;
54428;SDS011;40337;52.978;6.310;2023-08-06T05:00:31;12.85;;;11.38;;
54428;SDS011;40337;52.978;6.310;2023-08-06T05:02:59;12.25;;;11.05;;
54428;SDS011;40337;52.978;6.310;2023-08-06T05:05:27;15.02;;;12.55;;
54428;SDS011;40337;52.978;6.310;2023-08-06T05:07:53;12.75;;;11.43;;
54428;SDS011;40337;52.978;6.310;2023-08-06T05:10:19;13.15;;;11.63;;
54428;SDS011;40337;52.978;6.310;2023-08-06T05:12:45;13.98;;;12.48;;
54428;SDS011;40337;52.978;6.310;2023-08-06T05:15:11;13.32;;;11.93;;
54428;SDS011;40337;52.978;6.310;2023-08-06T05:17:36;13.30;;;11.80;;
54428;SDS011;40337;52.978;6.310;2023-08-06T05:20:02;13.20;;;11.80;;
54428;SDS011;40337;52.978;6.310;2023-08-06T05:22:28;13.18;;;11.77;;
54428;SDS011;40337;52.978;6.310;2023-08-06T05:24:53;12.60;;;11.30;;
54428;SDS011;40337;52.978;6.310;2023-08-06T05:27:19;14.10;;;12.70;;
54428;SDS011;40337;52.978;6.310;2023-08-06T05:29:45;15.18;;;11.63;;
54428;SDS011;40337;52.978;6.310;2023-08-06T05:32:10;13.77;;;11.82;;
54428;SDS011;40337;52.978;6.310;2023-08-06T05:34:36;13.68;;;11.73;;
54428;SDS011;40337;52.978;6.310;2023-08-06T05:37:02;12.63;;;11.32;;
54428;SDS011;40337;52.978;6.310;2023-08-06T05:39:28;12.25;;;10.98;;
54428;SDS011;40337;52.978;6.310;2023-08-06T05:41:54;13.43;;;12.02;;
54428;SDS011;40337;52.978;6.310;2023-08-06T05:44:20;12.90;;;11.57;;
54428;SDS011;40337;52.978;6.310;2023-08-06T05:46:46;11.75;;;10.63;;
54428;SDS011;40337;52.978;6.310;2023-08-06T05:49:11;12.82;;;11.23;;
54428;SDS011;40337;52.978;6.310;2023-08-06T05:51:38;12.75;;;11.25;;
54428;SDS011;40337;52.978;6.310;2023-08-06T05:54:04;12.65;;;11.35;;
54428;SDS011;40337;52.978;6.310;2023-08-06T05:56:30;11.93;;;10.73;;
54428;SDS011;40337;52.978;6.310;2023-08-06T05:58:55;12.30;;;11.10;;
54428;SDS011;40337;52.978;6.310;2023-08-06T06:01:21;11.88;;;10.68;;
54428;SDS011;40337;52.978;6.310;2023-08-06T06:03:46;12.65;;;11.35;;
54428;SDS011;40337;52.978;6.310;2023-08-06T06:06:12;12.95;;;11.15;;
54428;SDS011;40337;52.978;6.310;2023-08-06T06:08:37;12.02;;;10.68;;
54428;SDS011;40337;52.978;6.310;2023-08-06T06:11:03;12.15;;;10.95;;
54428;SDS011;40337;52.978;6.310;2023-08-06T06:13:29;12.30;;;11.10;;
54428;SDS011;40337;52.978;6.310;2023-08-06T06:15:54;11.75;;;10.55;;
54428;SDS011;40337;52.978;6.310;2023-08-06T06:18:21;10.95;;;9.82;;
54428;SDS011;40337;52.978;6.310;2023-08-06T06:20:47;11.25;;;10.15;;
54428;SDS011;40337;52.978;6.310;2023-08-06T06:23:12;11.88;;;10.70;;
54428;SDS011;40337;52.978;6.310;2023-08-06T06:25:41;11.02;;;9.93;;
54428;SDS011;40337;52.978;6.310;2023-08-06T06:28:17;12.30;;;11.10;;
54428;SDS011;40337;52.978;6.310;2023-08-06T06:30:43;10.55;;;9.55;;
54428;SDS011;40337;52.978;6.310;2023-08-06T06:33:08;11.48;;;9.80;;
54428;SDS011;40337;52.978;6.310;2023-08-06T06:35:34;10.18;;;8.98;;
54428;SDS011;40337;52.978;6.310;2023-08-06T06:37:59;10.70;;;9.18;;
54428;SDS011;40337;52.978;6.310;2023-08-06T06:40:25;11.18;;;9.18;;
54428;SDS011;40337;52.978;6.310;2023-08-06T06:42:51;9.73;;;8.65;;
54428;SDS011;40337;52.978;6.310;2023-08-06T06:45:16;10.35;;;9.27;;
54428;SDS011;40337;52.978;6.310;2023-08-06T06:47:42;9.77;;;8.88;;
54428;SDS011;40337;52.978;6.310;2023-08-06T06:50:08;9.18;;;8.38;;
54428;SDS011;40337;52.978;6.310;2023-08-06T06:52:34;9.68;;;8.65;;
54428;SDS011;40337;52.978;6.310;2023-08-06T06:55:00;9.73;;;8.82;;
54428;SDS011;40337;52.978;6.310;2023-08-06T06:57:25;9.25;;;8.27;;
54428;SDS011;40337;52.978;6.310;2023-08-06T06:59:51;9.23;;;8.32;;
54428;SDS011;40337;52.978;6.310;2023-08-06T07:02:16;8.88;;;7.97;;
54428;SDS011;40337;52.978;6.310;2023-08-06T07:04:42;9.27;;;8.38;;
54428;SDS011;40337;52.978;6.310;2023-08-06T07:07:07;10.23;;;9.15;;
54428;SDS011;40337;52.978;6.310;2023-08-06T07:09:33;10.52;;;9.52;;
54428;SDS011;40337;52.978;6.310;2023-08-06T07:11:58;11.13;;;10.02;;
54428;SDS011;40337;52.978;6.310;2023-08-06T07:14:25;9.90;;;8.90;;
54428;SDS011;40337;52.978;6.310;2023-08-06T07:16:51;10.65;;;9.55;;
54428;SDS011;40337;52.978;6.310;2023-08-06T07:19:17;11.18;;;9.98;;
54428;SDS011;40337;52.978;6.310;2023-08-06T07:21:43;10.63;;;9.52;;
54428;SDS011;40337;52.978;6.310;2023-08-06T07:24:08;11.07;;;10.02;;
54428;SDS011;40337;52.978;6.310;2023-08-06T07:26:34;12.02;;;10.15;;
54428;SDS011;40337;52.978;6.310;2023-08-06T07:29:00;10.50;;;9.50;;
54428;SDS011;40337;52.978;6.310;2023-08-06T07:31:25;10.40;;;9.40;;
54428;SDS011;40337;52.978;6.310;2023-08-06T07:33:51;10.18;;;9.18;;
54428;SDS011;40337;52.978;6.310;2023-08-06T07:36:18;10.15;;;9.15;;
54428;SDS011;40337;52.978;6.310;2023-08-06T07:38:43;10.20;;;8.93;;
54428;SDS011;40337;52.978;6.310;2023-08-06T07:41:09;9.75;;;8.75;;
54428;SDS011;40337;52.978;6.310;2023-08-06T07:43:34;9.88;;;8.65;;
54428;SDS011;40337;52.978;6.310;2023-08-06T07:46:00;9.63;;;8.25;;
54428;SDS011;40337;52.978;6.310;2023-08-06T07:48:27;9.18;;;8.27;;
54428;SDS011;40337;52.978;6.310;2023-08-06T07:50:53;9.65;;;8.60;;
54428;SDS011;40337;52.978;6.310;2023-08-06T07:53:20;8.93;;;8.07;;
54428;SDS011;40337;52.978;6.310;2023-08-06T07:55:50;11.50;;;9.38;;
54428;SDS011;40337;52.978;6.310;2023-08-06T07:58:16;9.38;;;8.48;;
54428;SDS011;40337;52.978;6.310;2023-08-06T08:00:42;9.40;;;8.02;;
54428;SDS011;40337;52.978;6.310;2023-08-06T08:03:10;8.90;;;8.00;;
54428;SDS011;40337;52.978;6.310;2023-08-06T08:05:39;9.25;;;8.02;;
54428;SDS011;40337;52.978;6.310;2023-08-06T08:08:05;8.98;;;8.07;;
54428;SDS011;40337;52.978;6.310;2023-08-06T08:10:31;10.45;;;8.60;;
54428;SDS011;40337;52.978;6.310;2023-08-06T08:12:57;9.05;;;7.68;;
54428;SDS011;40337;52.978;6.310;2023-08-06T08:15:24;7.90;;;7.10;;
54428;SDS011;40337;52.978;6.310;2023-08-06T08:17:51;7.28;;;6.57;;
54428;SDS011;40337;52.978;6.310;2023-08-06T08:20:17;7.70;;;6.90;;
54428;SDS011;40337;52.978;6.310;2023-08-06T08:22:43;8.00;;;7.05;;
54428;SDS011;40337;52.978;6.310;2023-08-06T08:25:08;7.80;;;7.00;;
54428;SDS011;40337;52.978;6.310;2023-08-06T08:27:34;7.53;;;6.72;;
54428;SDS011;40337;52.978;6.310;2023-08-06T08:29:59;7.18;;;6.47;;
54428;SDS011;40337;52.978;6.310;2023-08-06T08:32:25;7.43;;;6.63;;
54428;SDS011;40337;52.978;6.310;2023-08-06T08:34:50;7.63;;;6.50;;
54428;SDS011;40337;52.978;6.310;2023-08-06T08:37:16;8.50;;;7.13;;
54428;SDS011;40337;52.978;6.310;2023-08-06T08:39:42;7.50;;;6.75;;
54428;SDS011;40337;52.978;6.310;2023-08-06T08:42:08;8.32;;;7.28;;
54428;SDS011;40337;52.978;6.310;2023-08-06T08:44:35;7.95;;;7.15;;
54428;SDS011;40337;52.978;6.310;2023-08-06T08:47:04;7.30;;;6.60;;
54428;SDS011;40337;52.978;6.310;2023-08-06T08:49:31;7.57;;;6.82;;
54428;SDS011;40337;52.978;6.310;2023-08-06T08:51:57;7.35;;;6.65;;
54428;SDS011;40337;52.978;6.310;2023-08-06T08:54:26;8.32;;;6.43;;
54428;SDS011;40337;52.978;6.310;2023-08-06T08:56:53;6.82;;;6.13;;
54428;SDS011;40337;52.978;6.310;2023-08-06T08:59:20;7.82;;;6.30;;
54428;SDS011;40337;52.978;6.310;2023-08-06T09:01:45;6.68;;;5.95;;
54428;SDS011;40337;52.978;6.310;2023-08-06T09:04:15;6.75;;;5.90;;
54428;SDS011;40337;52.978;6.310;2023-08-06T09:06:41;6.35;;;5.40;;
54428;SDS011;40337;52.978;6.310;2023-08-06T09:09:08;6.32;;;5.13;;
54428;SDS011;40337;52.978;6.310;2023-08-06T09:11:39;5.97;;;5.00;;
54428;SDS011;40337;52.978;6.310;2023-08-06T09:14:09;6.85;;;5.15;;
54428;SDS011;40337;52.978;6.310;2023-08-06T09:16:36;5.63;;;4.97;;
54428;SDS011;40337;52.978;6.310;2023-08-06T09:19:08;6.22;;;4.93;;
54428;SDS011;40337;52.978;6.310;2023-08-06T09:21:41;6.43;;;5.07;;
54428;SDS011;40337;52.978;6.310;2023-08-06T09:24:11;7.50;;;4.88;;
54428;SDS011;40337;52.978;6.310;2023-08-06T09:26:40;5.90;;;5.20;;
54428;SDS011;40337;52.978;6.310;2023-08-06T09:29:07;5.93;;;4.60;;
54428;SDS011;40337;52.978;6.310;2023-08-06T09:34:23;7.53;;;4.90;;
54428;SDS011;40337;52.978;6.310;2023-08-06T09:36:49;6.35;;;4.43;;
54428;SDS011;40337;52.978;6.310;2023-08-06T09:39:17;5.32;;;4.63;;
54428;SDS011;40337;52.978;6.310;2023-08-06T09:41:43;6.88;;;4.97;;
54428;SDS011;40337;52.978;6.310;2023-08-06T09:44:17;7.18;;;5.32;;
54428;SDS011;40337;52.978;6.310;2023-08-06T09:47:03;5.40;;;4.60;;
54428;SDS011;40337;52.978;6.310;2023-08-06T09:51:57;5.60;;;4.80;;
54428;SDS011;40337;52.978;6.310;2023-08-06T09:54:24;5.47;;;4.78;;
54428;SDS011;40337;52.978;6.310;2023-08-06T09:56:52;5.70;;;4.63;;
54428;SDS011;40337;52.978;6.310;2023-08-06T09:59:18;6.25;;;4.55;;
54428;SDS011;40337;52.978;6.310;2023-08-06T10:01:45;5.40;;;4.57;;
54428;SDS011;40337;52.978;6.310;2023-08-06T10:04:11;5.13;;;4.43;;
54428;SDS011;40337;52.978;6.310;2023-08-06T10:06:41;5.75;;;3.95;;
54428;SDS011;40337;52.978;6.310;2023-08-06T10:09:07;6.90;;;3.90;;
54428;SDS011;40337;52.978;6.310;2023-08-06T10:11:34;5.53;;;4.25;;
54428;SDS011;40337;52.978;6.310;2023-08-06T10:14:16;4.93;;;3.83;;
54428;SDS011;40337;52.978;6.310;2023-08-06T10:16:46;4.82;;;4.20;;
54428;SDS011;40337;52.978;6.310;2023-08-06T10:19:12;4.72;;;3.80;;
54428;SDS011;40337;52.978;6.310;2023-08-06T10:21:40;4.53;;;3.65;;
54428;SDS011;40337;52.978;6.310;2023-08-06T10:24:09;5.28;;;3.70;;
54428;SDS011;40337;52.978;6.310;2023-08-06T10:26:39;4.32;;;3.47;;
54428;SDS011;40337;52.978;6.310;2023-08-06T10:32:02;3.38;;;2.60;;
54428;SDS011;40337;52.978;6.310;2023-08-06T10:37:24;4.15;;;2.80;;
54428;SDS011;40337;52.978;6.310;2023-08-06T10:40:00;4.60;;;2.50;;
54428;SDS011;40337;52.978;6.310;2023-08-06T10:42:27;4.78;;;2.30;;
54428;SDS011;40337;52.978;6.310;2023-08-06T10:47:42;3.60;;;2.45;;
54428;SDS011;40337;52.978;6.310;2023-08-06T10:50:11;4.00;;;2.17;;
54428;SDS011;40337;52.978;6.310;2023-08-06T10:52:38;4.75;;;2.35;;
54428;SDS011;40337;52.978;6.310;2023-08-06T10:55:04;5.50;;;2.20;;
54428;SDS011;40337;52.978;6.310;2023-08-06T10:57:30;4.32;;;2.10;;
54428;SDS011;40337;52.978;6.310;2023-08-06T10:59:56;3.10;;;2.00;;
54428;SDS011;40337;52.978;6.310;2023-08-06T11:02:21;3.00;;;2.13;;
54428;SDS011;40337;52.978;6.310;2023-08-06T11:04:48;3.10;;;1.90;;
54428;SDS011;40337;52.978;6.310;2023-08-06T11:07:13;4.47;;;2.10;;
54428;SDS011;40337;52.978;6.310;2023-08-06T11:09:39;4.50;;;2.30;;
54428;SDS011;40337;52.978;6.310;2023-08-06T11:12:11;3.33;;;2.08;;
54428;SDS011;40337;52.978;6.310;2023-08-06T11:14:37;3.70;;;2.10;;
54428;SDS011;40337;52.978;6.310;2023-08-06T11:17:03;3.20;;;2.00;;
54428;SDS011;40337;52.978;6.310;2023-08-06T11:19:30;3.22;;;2.05;;
54428;SDS011;40337;52.978;6.310;2023-08-06T11:21:56;3.58;;;2.15;;
54428;SDS011;40337;52.978;6.310;2023-08-06T11:24:23;3.60;;;2.05;;
54428;SDS011;40337;52.978;6.310;2023-08-06T11:26:49;2.85;;;1.80;;
54428;SDS011;40337;52.978;6.310;2023-08-06T11:29:15;4.18;;;1.90;;
54428;SDS011;40337;52.978;6.310;2023-08-06T11:31:41;3.80;;;2.10;;
54428;SDS011;40337;52.978;6.310;2023-08-06T11:34:06;3.92;;;2.00;;
54428;SDS011;40337;52.978;6.310;2023-08-06T11:36:32;4.72;;;2.15;;
54428;SDS011;40337;52.978;6.310;2023-08-06T11:38:59;3.17;;;2.00;;
54428;SDS011;40337;52.978;6.310;2023-08-06T11:41:27;4.57;;;2.10;;
54428;SDS011;40337;52.978;6.310;2023-08-06T11:43:53;3.67;;;2.10;;
54428;SDS011;40337;52.978;6.310;2023-08-06T11:46:19;3.63;;;2.28;;
54428;SDS011;40337;52.978;6.310;2023-08-06T11:48:54;4.00;;;2.47;;
54428;SDS011;40337;52.978;6.310;2023-08-06T11:51:26;4.35;;;2.22;;
54428;SDS011;40337;52.978;6.310;2023-08-06T11:53:56;3.53;;;2.10;;
54428;SDS011;40337;52.978;6.310;2023-08-06T11:56:22;4.28;;;2.10;;
54428;SDS011;40337;52.978;6.310;2023-08-06T11:58:48;4.03;;;1.95;;
54428;SDS011;40337;52.978;6.310;2023-08-06T12:01:13;6.57;;;2.20;;
54428;SDS011;40337;52.978;6.310;2023-08-06T12:03:39;4.07;;;2.30;;
54428;SDS011;40337;52.978;6.310;2023-08-06T12:06:05;3.95;;;2.22;;
54428;SDS011;40337;52.978;6.310;2023-08-06T12:08:32;5.45;;;2.13;;
54428;SDS011;40337;52.978;6.310;2023-08-06T12:10:58;3.97;;;2.28;;
54428;SDS011;40337;52.978;6.310;2023-08-06T12:13:24;3.85;;;2.30;;
54428;SDS011;40337;52.978;6.310;2023-08-06T12:15:49;3.60;;;2.38;;
54428;SDS011;40337;52.978;6.310;2023-08-06T12:18:18;6.82;;;2.50;;
54428;SDS011;40337;52.978;6.310;2023-08-06T12:20:43;4.68;;;2.40;;
54428;SDS011;40337;52.978;6.310;2023-08-06T12:23:09;3.45;;;2.17;;
54428;SDS011;40337;52.978;6.310;2023-08-06T12:25:35;4.47;;;2.25;;
54428;SDS011;40337;52.978;6.310;2023-08-06T12:28:00;5.00;;;2.22;;
54428;SDS011;40337;52.978;6.310;2023-08-06T12:30:26;4.25;;;2.35;;
54428;SDS011;40337;52.978;6.310;2023-08-06T12:32:51;8.32;;;2.33;;
54428;SDS011;40337;52.978;6.310;2023-08-06T12:35:17;3.60;;;2.10;;
54428;SDS011;40337;52.978;6.310;2023-08-06T12:37:42;3.78;;;2.42;;
54428;SDS011;40337;52.978;6.310;2023-08-06T12:40:09;4.80;;;2.08;;
54428;SDS011;40337;52.978;6.310;2023-08-06T12:42:35;4.15;;;2.40;;
54428;SDS011;40337;52.978;6.310;2023-08-06T12:45:00;3.83;;;2.10;;
54428;SDS011;40337;52.978;6.310;2023-08-06T12:47:26;4.10;;;2.42;;
54428;SDS011;40337;52.978;6.310;2023-08-06T12:49:52;4.25;;;2.20;;
54428;SDS011;40337;52.978;6.310;2023-08-06T12:52:17;3.95;;;2.30;;
54428;SDS011;40337;52.978;6.310;2023-08-06T12:54:44;3.72;;;2.03;;
54428;SDS011;40337;52.978;6.310;2023-08-06T12:57:11;5.53;;;2.22;;
54428;SDS011;40337;52.978;6.310;2023-08-06T12:59:37;3.30;;;2.30;;
54428;SDS011;40337;52.978;6.310;2023-08-06T13:02:02;4.18;;;2.05;;
54428;SDS011;40337;52.978;6.310;2023-08-06T13:04:28;3.60;;;2.53;;
54428;SDS011;40337;52.978;6.310;2023-08-06T13:06:54;3.97;;;2.08;;
54428;SDS011;40337;52.978;6.310;2023-08-06T13:09:19;4.50;;;2.40;;
54428;SDS011;40337;52.978;6.310;2023-08-06T13:11:45;5.38;;;2.42;;
54428;SDS011;40337;52.978;6.310;2023-08-06T13:14:12;5.30;;;2.40;;
54428;SDS011;40337;52.978;6.310;2023-08-06T13:16:39;3.45;;;2.40;;
54428;SDS011;40337;52.978;6.310;2023-08-06T13:19:06;4.78;;;2.30;;
54428;SDS011;40337;52.978;6.310;2023-08-06T13:21:33;7.85;;;2.20;;
54428;SDS011;40337;52.978;6.310;2023-08-06T13:24:15;5.95;;;2.40;;
54428;SDS011;40337;52.978;6.310;2023-08-06T13:26:40;3.67;;;2.20;;
54428;SDS011;40337;52.978;6.310;2023-08-06T13:29:06;3.63;;;2.30;;
54428;SDS011;40337;52.978;6.310;2023-08-06T13:31:32;4.55;;;2.40;;
54428;SDS011;40337;52.978;6.310;2023-08-06T13:33:58;4.55;;;2.15;;
54428;SDS011;40337;52.978;6.310;2023-08-06T13:36:26;5.45;;;2.42;;
54428;SDS011;40337;52.978;6.310;2023-08-06T13:38:52;4.45;;;2.60;;
54428;SDS011;40337;52.978;6.310;2023-08-06T13:41:18;3.97;;;2.20;;
54428;SDS011;40337;52.978;6.310;2023-08-06T13:43:44;4.28;;;2.30;;
54428;SDS011;40337;52.978;6.310;2023-08-06T13:46:10;7.15;;;2.40;;
54428;SDS011;40337;52.978;6.310;2023-08-06T13:48:41;3.65;;;2.22;;
54428;SDS011;40337;52.978;6.310;2023-08-06T13:51:07;4.70;;;2.30;;
54428;SDS011;40337;52.978;6.310;2023-08-06T13:53:33;4.43;;;2.28;;
54428;SDS011;40337;52.978;6.310;2023-08-06T13:55:58;8.95;;;2.40;;
54428;SDS011;40337;52.978;6.310;2023-08-06T13:58:24;3.22;;;2.10;;
54428;SDS011;40337;52.978;6.310;2023-08-06T14:00:51;3.40;;;2.15;;
54428;SDS011;40337;52.978;6.310;2023-08-06T14:03:18;3.42;;;1.90;;
54428;SDS011;40337;52.978;6.310;2023-08-06T14:05:44;3.63;;;2.10;;
54428;SDS011;40337;52.978;6.310;2023-08-06T14:08:09;3.97;;;2.10;;
54428;SDS011;40337;52.978;6.310;2023-08-06T14:10:35;3.65;;;1.98;;
54428;SDS011;40337;52.978;6.310;2023-08-06T14:13:00;4.13;;;2.10;;
54428;SDS011;40337;52.978;6.310;2023-08-06T14:15:26;3.80;;;2.20;;
54428;SDS011;40337;52.978;6.310;2023-08-06T14:17:52;3.40;;;2.10;;
54428;SDS011;40337;52.978;6.310;2023-08-06T14:20:17;4.78;;;2.30;;
54428;SDS011;40337;52.978;6.310;2023-08-06T14:22:43;2.75;;;1.90;;
54428;SDS011;40337;52.978;6.310;2023-08-06T14:25:08;3.58;;;2.10;;
54428;SDS011;40337;52.978;6.310;2023-08-06T14:27:34;4.80;;;2.25;;
54428;SDS011;40337;52.978;6.310;2023-08-06T14:30:00;4.20;;;2.10;;
54428;SDS011;40337;52.978;6.310;2023-08-06T14:32:25;4.35;;;2.33;;
54428;SDS011;40337;52.978;6.310;2023-08-06T14:34:51;3.50;;;2.05;;
54428;SDS011;40337;52.978;6.310;2023-08-06T14:37:17;3.58;;;2.65;;
54428;SDS011;40337;52.978;6.310;2023-08-06T14:39:42;3.97;;;2.00;;
54428;SDS011;40337;52.978;6.310;2023-08-06T14:42:08;3.58;;;2.08;;
54428;SDS011;40337;52.978;6.310;2023-08-06T14:44:34;3.55;;;2.20;;
54428;SDS011;40337;52.978;6.310;2023-08-06T14:46:59;3.28;;;2.00;;
54428;SDS011;40337;52.978;6.310;2023-08-06T14:49:25;4.10;;;2.10;;
54428;SDS011;40337;52.978;6.310;2023-08-06T14:51:50;3.90;;;2.28;;